createdAt,value
2018-05-06T00:00:17.352Z,27.00
2018-05-06T00:02:45.007Z,23.47
2018-05-06T00:05:13.464Z,16.10
2018-05-06T00:07:41.124Z,12.83
2018-05-06T00:10:08.817Z,11.00
2018-05-06T00:12:36.477Z,8.67
2018-05-06T00:15:04.156Z,8.87
2018-05-06T00:17:31.808Z,7.03
2018-05-06T00:19:59.499Z,6.20
2018-05-06T00:22:27.907Z,5.57
2018-05-06T00:24:55.603Z,5.20
2018-05-06T00:27:23.271Z,4.93
2018-05-06T00:29:50.961Z,4.77
2018-05-06T00:32:19.415Z,4.87
2018-05-06T00:34:47.069Z,4.73
2018-05-06T00:37:14.746Z,3.87
2018-05-06T00:39:42.395Z,4.40
2018-05-06T00:42:10.075Z,5.00
2018-05-06T00:44:38.497Z,4.10
2018-05-06T00:47:06.203Z,4.30
2018-05-06T00:49:33.872Z,4.50
2018-05-06T00:52:01.648Z,4.50
2018-05-06T00:54:40.942Z,4.90
2018-05-06T00:57:08.633Z,4.03
2018-05-06T00:59:36.283Z,4.67
2018-05-06T01:02:03.931Z,4.17
2018-05-06T01:04:31.600Z,3.87
2018-05-06T01:06:59.259Z,3.93
2018-05-06T01:09:26.950Z,3.63
2018-05-06T01:11:55.375Z,4.53
2018-05-06T01:14:23.058Z,5.00
2018-05-06T01:16:50.739Z,3.63
2018-05-06T01:19:18.421Z,4.87
2018-05-06T01:21:46.868Z,3.73
2018-05-06T01:24:14.562Z,4.27
2018-05-06T01:26:43.006Z,4.00
2018-05-06T01:29:10.647Z,3.97
2018-05-06T01:31:38.339Z,4.53
2018-05-06T01:34:05.986Z,4.37
2018-05-06T01:36:33.664Z,3.40
2018-05-06T01:39:01.340Z,4.73
2018-05-06T01:41:29.823Z,4.50
2018-05-06T01:43:58.243Z,4.70
2018-05-06T01:46:25.896Z,4.70
2018-05-06T01:48:53.585Z,4.60
2018-05-06T01:51:21.271Z,4.07
2018-05-06T01:53:48.949Z,4.27
2018-05-06T01:56:17.383Z,4.20
2018-05-06T01:58:45.072Z,4.17
2018-05-06T02:01:12.706Z,4.77
2018-05-06T02:03:40.387Z,3.67
2018-05-06T02:06:08.043Z,3.63
2018-05-06T02:08:35.737Z,3.60
2018-05-06T02:11:04.156Z,4.00
2018-05-06T02:13:31.847Z,4.37
2018-05-06T02:15:59.504Z,4.33
2018-05-06T02:18:27.189Z,5.00
2018-05-06T02:20:54.864Z,3.40
2018-05-06T02:23:22.525Z,3.97
2018-05-06T02:25:50.224Z,4.10
2018-05-06T02:28:17.874Z,3.90
2018-05-06T02:30:46.453Z,3.97
2018-05-06T02:33:14.903Z,3.37
2018-05-06T02:35:42.555Z,3.70
2018-05-06T02:38:10.241Z,4.00
2018-05-06T02:40:38.652Z,4.20
2018-05-06T02:43:06.326Z,3.97
2018-05-06T02:45:34.008Z,3.63
2018-05-06T02:48:01.655Z,4.20
2018-05-06T02:50:29.371Z,3.83
2018-05-06T02:52:57.822Z,3.57
2018-05-06T02:55:25.472Z,3.80
2018-05-06T02:57:53.149Z,3.90
2018-05-06T03:00:20.827Z,3.57
2018-05-06T03:02:48.516Z,4.00
2018-05-06T03:05:16.204Z,3.70
2018-05-06T03:07:43.858Z,3.47
2018-05-06T03:10:11.548Z,4.13
2018-05-06T03:12:39.287Z,4.13
2018-05-06T03:15:06.928Z,4.00
2018-05-06T03:17:34.625Z,4.03
2018-05-06T03:20:02.275Z,3.20
2018-05-06T03:22:29.956Z,4.10
2018-05-06T03:24:57.604Z,5.43
2018-05-06T03:27:25.287Z,4.70
2018-05-06T03:29:52.944Z,4.73
2018-05-06T03:32:20.622Z,5.40
2018-05-06T03:34:48.283Z,6.17
2018-05-06T03:37:15.958Z,6.03
2018-05-06T03:39:44.375Z,4.63
2018-05-06T03:42:12.063Z,6.43
2018-05-06T03:44:39.707Z,5.03
2018-05-06T03:47:07.387Z,5.10
2018-05-06T03:49:35.841Z,4.30
2018-05-06T03:52:03.491Z,5.10
2018-05-06T03:54:31.176Z,3.67
2018-05-06T03:57:10.699Z,4.03
2018-05-06T03:59:50.493Z,3.90
2018-05-06T04:05:20.211Z,3.77
2018-05-06T04:07:47.863Z,4.00
2018-05-06T04:10:15.540Z,4.00
2018-05-06T04:12:43.191Z,4.37
2018-05-06T04:15:10.876Z,3.97
2018-05-06T04:17:38.523Z,4.37
2018-05-06T04:20:06.211Z,4.30
2018-05-06T04:22:33.855Z,4.40
2018-05-06T04:25:01.499Z,3.87
2018-05-06T04:27:29.183Z,4.33
2018-05-06T04:29:56.839Z,4.13
2018-05-06T04:32:24.531Z,4.03
2018-05-06T04:34:52.951Z,4.40
2018-05-06T04:37:20.630Z,4.10
2018-05-06T04:39:48.284Z,3.83
2018-05-06T04:42:15.988Z,3.60
2018-05-06T04:44:44.398Z,4.03
2018-05-06T04:47:12.082Z,3.90
2018-05-06T04:49:39.735Z,3.83
2018-05-06T04:52:07.411Z,3.80
2018-05-06T04:54:35.056Z,3.57
2018-05-06T04:57:02.748Z,3.67
2018-05-06T04:59:30.403Z,3.63
2018-05-06T05:01:58.076Z,4.17
2018-05-06T05:04:25.723Z,3.90
2018-05-06T05:06:53.408Z,4.27
2018-05-06T05:09:21.056Z,4.20
2018-05-06T05:11:48.738Z,3.43
2018-05-06T05:14:16.454Z,3.80
2018-05-06T05:16:44.136Z,4.00
2018-05-06T05:19:11.819Z,4.07
2018-05-06T05:21:39.476Z,3.60
2018-05-06T05:24:07.169Z,3.40
2018-05-06T05:26:35.584Z,3.60
2018-05-06T05:29:03.287Z,3.90
2018-05-06T05:31:30.959Z,3.67
2018-05-06T05:33:59.387Z,4.73
2018-05-06T05:36:27.070Z,3.50
2018-05-06T05:38:54.728Z,3.80
2018-05-06T05:41:22.411Z,3.73
2018-05-06T05:43:50.105Z,3.77
2018-05-06T05:46:18.516Z,3.90
2018-05-06T05:48:46.171Z,3.80
2018-05-06T05:51:13.847Z,3.83
2018-05-06T05:53:41.531Z,3.20
2018-05-06T05:56:09.234Z,4.60
2018-05-06T05:58:37.690Z,3.90
2018-05-06T06:01:05.334Z,3.63
2018-05-06T06:03:32.995Z,3.80
2018-05-06T06:06:00.680Z,3.73
2018-05-06T06:08:29.136Z,3.93
2018-05-06T06:10:56.790Z,3.43
2018-05-06T06:13:24.483Z,3.63
2018-05-06T06:15:52.947Z,3.87
2018-05-06T06:18:20.603Z,3.77
2018-05-06T06:20:48.293Z,4.13
2018-05-06T06:23:16.739Z,3.73
2018-05-06T06:25:44.432Z,3.53
2018-05-06T06:28:12.860Z,4.07
2018-05-06T06:30:40.549Z,4.13
2018-05-06T06:33:08.216Z,3.90
2018-05-06T06:35:37.912Z,3.93
2018-05-06T06:38:05.602Z,3.70
2018-05-06T06:40:33.250Z,4.00
2018-05-06T06:43:00.919Z,4.03
2018-05-06T06:45:28.631Z,4.10
2018-05-06T06:47:56.362Z,3.67
2018-05-06T06:50:24.046Z,4.00
2018-05-06T06:52:51.703Z,3.60
2018-05-06T06:55:19.383Z,3.77
2018-05-06T06:57:47.043Z,4.43
2018-05-06T07:00:14.727Z,4.20
2018-05-06T07:02:42.383Z,3.83
2018-05-06T07:05:10.074Z,4.30
2018-05-06T07:07:37.758Z,4.03
2018-05-06T07:10:06.207Z,4.27
2018-05-06T07:12:33.884Z,3.57
2018-05-06T07:15:02.351Z,4.17
2018-05-06T07:17:30.042Z,4.33
2018-05-06T07:19:58.469Z,3.67
2018-05-06T07:22:26.164Z,3.33
2018-05-06T07:24:53.831Z,3.40
2018-05-06T07:27:21.521Z,4.10
2018-05-06T07:29:49.194Z,4.20
2018-05-06T07:32:16.907Z,4.07
2018-05-06T07:34:44.560Z,3.57
2018-05-06T07:37:12.271Z,3.53
2018-05-06T07:39:39.987Z,4.07
2018-05-06T07:42:07.640Z,3.50
2018-05-06T07:44:35.330Z,3.90
2018-05-06T07:47:03.027Z,4.20
2018-05-06T07:49:30.722Z,3.40
2018-05-06T07:51:58.413Z,3.70
2018-05-06T07:54:26.131Z,3.33
2018-05-06T07:56:53.817Z,3.03
2018-05-06T07:59:21.475Z,3.57
2018-05-06T08:01:49.177Z,3.47
2018-05-06T08:04:17.594Z,3.53
2018-05-06T08:06:45.260Z,3.10
2018-05-06T08:09:12.951Z,3.20
2018-05-06T08:11:41.584Z,2.60
2018-05-06T08:14:09.271Z,2.73
2018-05-06T08:16:36.992Z,3.10
2018-05-06T08:19:04.686Z,2.90
2018-05-06T08:21:32.383Z,2.90
2018-05-06T08:24:00.124Z,2.83
2018-05-06T08:26:27.902Z,2.80
2018-05-06T08:28:55.612Z,2.17
2018-05-06T08:31:24.035Z,2.80
2018-05-06T08:33:51.748Z,2.67
2018-05-06T08:36:20.189Z,2.60
2018-05-06T08:38:47.879Z,2.37
2018-05-06T08:41:15.527Z,2.40
2018-05-06T08:43:43.239Z,2.53
2018-05-06T08:46:10.899Z,2.90
2018-05-06T08:48:38.569Z,3.63
2018-05-06T08:51:06.279Z,2.90
2018-05-06T08:53:33.940Z,2.90
2018-05-06T08:56:01.610Z,3.43
2018-05-06T08:58:29.378Z,2.80
2018-05-06T09:00:57.045Z,2.77
2018-05-06T09:03:25.511Z,3.33
2018-05-06T09:05:53.186Z,3.13
2018-05-06T09:08:21.648Z,3.30
2018-05-06T09:10:49.348Z,3.17
2018-05-06T09:13:17.783Z,2.57
2018-05-06T09:15:45.464Z,2.70
2018-05-06T09:18:13.131Z,2.87
2018-05-06T09:20:41.592Z,2.50
2018-05-06T09:23:09.251Z,2.73
2018-05-06T09:25:37.018Z,2.50
2018-05-06T09:28:04.624Z,2.30
2018-05-06T09:30:39.374Z,2.73
2018-05-06T09:33:07.704Z,2.80
2018-05-06T09:35:35.655Z,2.80
2018-05-06T09:38:10.877Z,2.67
2018-05-06T09:40:43.845Z,2.67
2018-05-06T09:43:17.759Z,2.97
2018-05-06T09:45:51.412Z,2.87
2018-05-06T09:48:22.865Z,2.30
2018-05-06T09:50:54.627Z,2.70
2018-05-06T09:53:25.487Z,2.20
2018-05-06T09:55:57.972Z,2.80
2018-05-06T09:58:26.213Z,2.07
2018-05-06T10:01:01.739Z,2.33
2018-05-06T10:03:33.116Z,2.10
2018-05-06T10:06:11.930Z,2.23
2018-05-06T10:14:45.388Z,2.17
2018-05-06T10:17:22.546Z,1.80
2018-05-06T10:25:47.005Z,2.40
2018-05-06T10:28:24.727Z,2.13
2018-05-06T10:31:02.741Z,2.20
2018-05-06T10:38:19.863Z,2.40
2018-05-06T10:40:59.829Z,2.80
2018-05-06T10:43:31.492Z,2.10
2018-05-06T10:46:07.435Z,1.87
2018-05-06T10:48:44.865Z,2.17
2018-05-06T10:54:18.063Z,2.10
2018-05-06T13:09:35.859Z,1.17
2018-05-06T13:12:05.869Z,1.30
2018-05-06T13:15:01.337Z,1.63
2018-05-06T13:17:33.714Z,1.73
2018-05-06T13:20:06.692Z,1.40
2018-05-06T13:22:37.185Z,1.30
2018-05-06T13:25:16.003Z,0.97
2018-05-06T13:27:48.823Z,1.50
2018-05-06T13:30:19.142Z,1.40
2018-05-06T15:17:44.713Z,1.40
2018-05-06T15:20:12.422Z,1.87
2018-05-06T15:22:40.097Z,1.43
2018-05-06T15:25:07.849Z,1.50
2018-05-06T15:27:35.524Z,1.27
2018-05-06T15:30:03.213Z,1.53
2018-05-06T15:32:30.930Z,1.27
2018-05-06T15:34:58.700Z,1.00
2018-05-06T15:37:27.495Z,1.00
2018-05-06T15:39:55.233Z,1.30
2018-05-06T15:42:23.767Z,1.20
2018-05-06T15:44:51.474Z,1.20
2018-05-06T15:47:20.843Z,1.10
2018-05-06T15:49:48.964Z,0.97
2018-05-06T15:52:25.847Z,1.40
2018-05-06T15:54:55.574Z,1.20
2018-05-06T15:57:23.294Z,1.43
2018-05-06T15:59:52.143Z,1.23
2018-05-06T16:05:33.614Z,1.67
2018-05-06T16:08:01.351Z,1.40
2018-05-06T16:10:29.069Z,1.60
2018-05-06T16:12:57.645Z,1.40
2018-05-06T16:15:29.412Z,1.20
2018-05-06T16:17:57.969Z,2.00
2018-05-06T16:20:25.702Z,1.20
2018-05-06T16:22:53.425Z,2.00
2018-05-06T16:25:21.200Z,1.37
2018-05-06T16:27:48.906Z,1.40
2018-05-06T16:30:16.618Z,1.27
2018-05-06T16:32:45.116Z,1.33
2018-05-06T16:35:14.677Z,1.50
2018-05-06T16:37:43.979Z,1.90
2018-05-06T16:40:11.695Z,1.60
2018-05-06T16:42:39.433Z,1.53
2018-05-06T16:45:07.215Z,1.40
2018-05-06T16:47:35.902Z,1.20
2018-05-06T16:50:04.448Z,1.43
2018-05-06T16:52:33.750Z,1.10
2018-05-06T16:55:01.993Z,1.30
2018-05-06T16:57:34.369Z,1.30
2018-05-06T17:00:12.444Z,1.30
2018-05-06T17:02:40.172Z,1.20
2018-05-06T17:05:08.848Z,1.63
2018-05-06T17:07:37.545Z,1.20
2018-05-06T17:10:09.657Z,1.40
2018-05-06T17:12:38.105Z,2.20
2018-05-06T17:17:46.701Z,1.50
2018-05-06T17:20:15.422Z,1.50
2018-05-06T17:23:06.676Z,1.53
2018-05-06T17:25:34.708Z,1.40
2018-05-06T17:28:02.530Z,1.20
2018-05-06T17:30:31.872Z,1.43
2018-05-06T17:32:59.904Z,1.20
2018-05-06T17:35:27.599Z,1.57
2018-05-06T17:37:55.543Z,1.20
2018-05-06T17:40:23.236Z,1.70
2018-05-06T17:42:51.142Z,1.30
2018-05-06T17:45:18.867Z,1.37
2018-05-06T17:47:46.559Z,1.47
2018-05-06T17:50:14.983Z,1.23
2018-05-06T17:52:42.675Z,1.63
2018-05-06T17:55:10.362Z,1.50
2018-05-06T17:57:38.807Z,1.83
2018-05-06T18:00:06.512Z,1.60
2018-05-06T18:02:34.970Z,1.77
2018-05-06T18:05:03.455Z,1.70
2018-05-06T18:07:31.959Z,1.50
2018-05-06T18:10:01.334Z,1.73
2018-05-06T18:12:29.073Z,2.40
2018-05-06T18:14:57.608Z,1.80
2018-05-06T18:17:25.266Z,1.70
2018-05-06T18:19:53.717Z,2.10
2018-05-06T18:22:21.387Z,1.70
2018-05-06T18:24:49.084Z,2.20
2018-05-06T18:27:16.768Z,2.03
2018-05-06T18:29:44.474Z,1.80
2018-05-06T18:32:12.140Z,1.70
2018-05-06T18:34:40.601Z,3.57
2018-05-06T18:37:08.302Z,1.50
2018-05-06T18:39:38.119Z,2.00
2018-05-06T18:42:06.167Z,1.63
2018-05-06T18:44:34.631Z,1.80
2018-05-06T18:47:03.361Z,1.90
2018-05-06T18:49:31.774Z,2.30
2018-05-06T18:51:59.472Z,1.33
2018-05-06T18:54:27.907Z,1.73
2018-05-06T18:56:55.676Z,2.00
2018-05-06T18:59:24.197Z,1.60
2018-05-06T19:01:52.710Z,1.80
2018-05-06T19:04:20.372Z,2.07
2018-05-06T19:06:48.171Z,2.30
2018-05-06T19:09:15.948Z,1.70
2018-05-06T19:11:43.830Z,1.43
2018-05-06T19:14:12.387Z,2.03
2018-05-06T19:16:40.408Z,1.60
2018-05-06T19:19:08.219Z,1.53
2018-05-06T19:21:35.937Z,1.50
2018-05-06T19:24:03.787Z,1.83
2018-05-06T19:26:32.307Z,1.60
2018-05-06T19:29:00.123Z,1.47
2018-05-06T19:31:28.696Z,1.60
2018-05-06T19:33:57.339Z,1.80
2018-05-06T19:36:25.083Z,2.20
2018-05-06T19:38:52.754Z,1.90
2018-05-06T19:41:20.520Z,1.63
2018-05-06T19:43:48.265Z,1.80
2018-05-06T19:46:15.984Z,1.77
2018-05-06T19:48:43.661Z,1.43
2018-05-06T19:51:12.176Z,1.73
2018-05-06T19:53:40.632Z,3.97
2018-05-06T19:56:08.335Z,1.67
2018-05-06T19:58:36.074Z,1.53
2018-05-06T20:01:04.523Z,1.70
2018-05-06T20:03:32.288Z,1.63
2018-05-06T20:05:59.962Z,1.60
2018-05-06T20:08:28.434Z,1.97
2018-05-06T20:10:56.093Z,2.10
2018-05-06T20:13:23.779Z,2.00
2018-05-06T20:15:52.208Z,2.33
2018-05-06T20:18:19.899Z,2.03
2018-05-06T20:20:47.559Z,2.20
2018-05-06T20:23:15.279Z,2.57
2018-05-06T20:25:43.688Z,1.63
2018-05-06T20:28:11.340Z,2.43
2018-05-06T20:30:39.031Z,2.20
2018-05-06T20:33:06.709Z,2.10
2018-05-06T20:35:35.171Z,2.50
2018-05-06T20:38:02.840Z,2.70
2018-05-06T20:40:30.527Z,2.40
2018-05-06T20:42:58.984Z,2.20
2018-05-06T20:45:26.638Z,1.87
2018-05-06T20:47:54.328Z,2.53
2018-05-06T20:50:22.761Z,2.17
2018-05-06T20:52:50.455Z,2.53
2018-05-06T20:55:18.943Z,2.43
2018-05-06T20:57:46.644Z,2.70
2018-05-06T21:00:14.338Z,1.90
2018-05-06T21:02:42.001Z,2.97
2018-05-06T21:05:09.760Z,2.30
2018-05-06T21:07:37.391Z,2.80
2018-05-06T21:10:05.108Z,3.43
2018-05-06T21:12:33.526Z,2.63
2018-05-06T21:15:01.184Z,2.80
2018-05-06T21:17:28.878Z,2.90
2018-05-06T21:19:56.535Z,2.70
2018-05-06T21:22:24.348Z,3.10
2018-05-06T21:24:52.792Z,3.07
2018-05-06T21:27:20.482Z,3.30
2018-05-06T21:29:48.907Z,2.73
2018-05-06T21:32:16.598Z,2.87
2018-05-06T21:34:44.254Z,3.17
2018-05-06T21:37:11.958Z,3.17
2018-05-06T21:39:40.371Z,2.90
2018-05-06T21:42:08.031Z,3.60
2018-05-06T21:44:35.718Z,3.97
2018-05-06T21:47:03.415Z,3.97
2018-05-06T21:49:32.184Z,4.70
2018-05-06T21:51:59.868Z,3.77
2018-05-06T21:54:27.611Z,4.77
2018-05-06T21:56:55.235Z,4.17
2018-05-06T21:59:22.898Z,4.47
2018-05-06T22:01:50.591Z,4.07
2018-05-06T22:04:18.255Z,4.70
2018-05-06T22:06:45.959Z,4.43
2018-05-06T22:09:13.633Z,4.50
2018-05-06T22:11:41.359Z,4.67
2018-05-06T22:14:09.791Z,4.43
2018-05-06T22:16:37.443Z,3.63
2018-05-06T22:19:05.140Z,4.70
2018-05-06T22:21:32.796Z,4.43
2018-05-06T22:24:00.497Z,3.70
2018-05-06T22:26:28.927Z,4.90
2018-05-06T22:28:56.623Z,4.20
2018-05-06T22:31:24.318Z,4.20
2018-05-06T22:33:51.963Z,4.13
2018-05-06T22:36:20.415Z,4.23
2018-05-06T22:38:48.065Z,4.70
2018-05-06T22:41:15.749Z,3.60
2018-05-06T22:43:43.438Z,3.27
2018-05-06T22:46:11.127Z,4.57
2018-05-06T22:48:38.777Z,3.83
2018-05-06T22:51:06.572Z,4.27
2018-05-06T22:53:34.235Z,3.27
2018-05-06T22:56:01.921Z,3.47
2018-05-06T22:58:29.594Z,3.17
2018-05-06T23:00:58.054Z,3.50
2018-05-06T23:03:25.721Z,4.23
2018-05-06T23:05:53.383Z,3.77
2018-05-06T23:08:21.067Z,3.93
2018-05-06T23:10:49.513Z,3.90
2018-05-06T23:13:17.163Z,3.87
2018-05-06T23:15:44.855Z,3.67
2018-05-06T23:18:12.511Z,3.63
2018-05-06T23:20:40.167Z,4.57
2018-05-06T23:23:07.884Z,4.63
2018-05-06T23:25:35.550Z,4.53
2018-05-06T23:28:03.232Z,3.77
2018-05-06T23:30:31.644Z,3.93
2018-05-06T23:32:59.332Z,4.43
2018-05-06T23:35:28.855Z,4.40
2018-05-06T23:37:56.548Z,4.50
2018-05-06T23:40:24.194Z,3.87
2018-05-06T23:42:51.876Z,4.57
2018-05-06T23:45:19.529Z,4.10
2018-05-06T23:47:47.229Z,5.13
2018-05-06T23:50:15.668Z,5.30
2018-05-06T23:52:43.346Z,4.23
2018-05-06T23:55:11.040Z,4.30
2018-05-06T23:57:39.447Z,4.20
